sensor_id;sensor_type;location;lat;lon;timestamp;P1;durP1;ratioP1;P2;durP2;ratioP2
75937;SDS011;64615;32.062;34.834;2023-04-24T00:00:00;7.40;;;2.80;;
75937;SDS011;64615;32.062;34.834;2023-04-24T00:02:30;7.53;;;3.50;;
75937;SDS011;64615;32.062;34.834;2023-04-24T00:04:56;5.35;;;3.03;;
75937;SDS011;64615;32.062;34.834;2023-04-24T00:07:22;6.00;;;3.17;;
75937;SDS011;64615;32.062;34.834;2023-04-24T00:09:48;6.32;;;3.00;;
75937;SDS011;64615;32.062;34.834;2023-04-24T00:12:13;7.22;;;2.85;;
75937;SDS011;64615;32.062;34.834;2023-04-24T00:14:39;5.93;;;3.10;;
75937;SDS011;64615;32.062;34.834;2023-04-24T00:17:05;8.07;;;3.03;;
75937;SDS011;64615;32.062;34.834;2023-04-24T00:19:31;7.40;;;3.20;;
75937;SDS011;64615;32.062;34.834;2023-04-24T00:21:56;8.70;;;3.83;;
75937;SDS011;64615;32.062;34.834;2023-04-24T00:24:22;6.53;;;3.03;;
75937;SDS011;64615;32.062;34.834;2023-04-24T00:26:47;10.60;;;3.17;;
75937;SDS011;64615;32.062;34.834;2023-04-24T00:29:13;7.72;;;3.55;;
75937;SDS011;64615;32.062;34.834;2023-04-24T00:31:39;7.78;;;3.10;;
75937;SDS011;64615;32.062;34.834;2023-04-24T00:34:05;8.40;;;3.30;;
75937;SDS011;64615;32.062;34.834;2023-04-24T00:36:30;9.80;;;3.67;;
75937;SDS011;64615;32.062;34.834;2023-04-24T00:38:57;9.32;;;3.83;;
75937;SDS011;64615;32.062;34.834;2023-04-24T00:41:24;8.30;;;3.60;;
75937;SDS011;64615;32.062;34.834;2023-04-24T00:43:51;8.00;;;3.70;;
75937;SDS011;64615;32.062;34.834;2023-04-24T00:46:17;9.82;;;3.75;;
75937;SDS011;64615;32.062;34.834;2023-04-24T00:48:44;8.57;;;3.97;;
75937;SDS011;64615;32.062;34.834;2023-04-24T00:51:09;8.48;;;4.25;;
75937;SDS011;64615;32.062;34.834;2023-04-24T00:53:35;12.18;;;3.42;;
75937;SDS011;64615;32.062;34.834;2023-04-24T00:56:01;8.80;;;3.90;;
75937;SDS011;64615;32.062;34.834;2023-04-24T00:58:27;7.22;;;3.60;;
75937;SDS011;64615;32.062;34.834;2023-04-24T01:00:54;11.07;;;3.67;;
75937;SDS011;64615;32.062;34.834;2023-04-24T01:03:21;8.43;;;3.92;;
75937;SDS011;64615;32.062;34.834;2023-04-24T01:05:49;7.30;;;3.83;;
75937;SDS011;64615;32.062;34.834;2023-04-24T01:08:15;8.48;;;3.78;;
75937;SDS011;64615;32.062;34.834;2023-04-24T01:10:41;10.25;;;4.07;;
75937;SDS011;64615;32.062;34.834;2023-04-24T01:13:09;9.23;;;4.00;;
75937;SDS011;64615;32.062;34.834;2023-04-24T01:15:35;7.85;;;3.97;;
75937;SDS011;64615;32.062;34.834;2023-04-24T01:18:00;8.10;;;3.92;;
75937;SDS011;64615;32.062;34.834;2023-04-24T01:20:26;7.85;;;4.18;;
75937;SDS011;64615;32.062;34.834;2023-04-24T01:22:54;8.52;;;4.00;;
75937;SDS011;64615;32.062;34.834;2023-04-24T01:25:22;9.10;;;4.00;;
75937;SDS011;64615;32.062;34.834;2023-04-24T01:27:48;9.02;;;4.40;;
75937;SDS011;64615;32.062;34.834;2023-04-24T01:30:13;8.73;;;4.22;;
75937;SDS011;64615;32.062;34.834;2023-04-24T01:32:40;7.90;;;4.03;;
75937;SDS011;64615;32.062;34.834;2023-04-24T01:35:09;8.80;;;4.40;;
75937;SDS011;64615;32.062;34.834;2023-04-24T01:37:35;9.43;;;4.35;;
75937;SDS011;64615;32.062;34.834;2023-04-24T01:40:06;8.52;;;4.53;;
75937;SDS011;64615;32.062;34.834;2023-04-24T01:42:32;9.00;;;4.70;;
75937;SDS011;64615;32.062;34.834;2023-04-24T01:44:58;8.30;;;4.10;;
75937;SDS011;64615;32.062;34.834;2023-04-24T01:47:24;8.73;;;4.43;;
75937;SDS011;64615;32.062;34.834;2023-04-24T01:49:50;8.95;;;3.80;;
75937;SDS011;64615;32.062;34.834;2023-04-24T01:52:16;9.77;;;4.30;;
75937;SDS011;64615;32.062;34.834;2023-04-24T01:54:43;11.20;;;4.60;;
75937;SDS011;64615;32.062;34.834;2023-04-24T01:57:09;10.63;;;4.60;;
75937;SDS011;64615;32.062;34.834;2023-04-24T01:59:35;7.63;;;4.40;;
75937;SDS011;64615;32.062;34.834;2023-04-24T02:02:01;11.10;;;4.47;;
75937;SDS011;64615;32.062;34.834;2023-04-24T02:04:28;8.82;;;4.40;;
75937;SDS011;64615;32.062;34.834;2023-04-24T02:06:53;8.77;;;4.72;;
75937;SDS011;64615;32.062;34.834;2023-04-24T02:09:19;7.78;;;4.60;;
75937;SDS011;64615;32.062;34.834;2023-04-24T02:11:45;9.23;;;4.55;;
75937;SDS011;64615;32.062;34.834;2023-04-24T02:14:10;9.82;;;4.82;;
75937;SDS011;64615;32.062;34.834;2023-04-24T02:16:36;7.45;;;3.88;;
75937;SDS011;64615;32.062;34.834;2023-04-24T02:19:02;8.48;;;4.00;;
75937;SDS011;64615;32.062;34.834;2023-04-24T02:21:28;10.45;;;4.63;;
75937;SDS011;64615;32.062;34.834;2023-04-24T02:23:53;7.38;;;4.20;;
75937;SDS011;64615;32.062;34.834;2023-04-24T02:26:20;8.52;;;4.40;;
75937;SDS011;64615;32.062;34.834;2023-04-24T02:28:45;10.55;;;4.30;;
75937;SDS011;64615;32.062;34.834;2023-04-24T02:31:11;11.02;;;4.85;;
75937;SDS011;64615;32.062;34.834;2023-04-24T02:33:36;9.25;;;4.47;;
75937;SDS011;64615;32.062;34.834;2023-04-24T02:36:02;11.70;;;4.10;;
75937;SDS011;64615;32.062;34.834;2023-04-24T02:38:28;7.07;;;4.40;;
75937;SDS011;64615;32.062;34.834;2023-04-24T02:40:54;10.05;;;4.70;;
75937;SDS011;64615;32.062;34.834;2023-04-24T02:43:20;10.48;;;5.00;;
75937;SDS011;64615;32.062;34.834;2023-04-24T02:45:46;9.48;;;4.72;;
75937;SDS011;64615;32.062;34.834;2023-04-24T02:48:11;11.50;;;4.57;;
75937;SDS011;64615;32.062;34.834;2023-04-24T02:50:37;10.05;;;4.57;;
75937;SDS011;64615;32.062;34.834;2023-04-24T02:53:02;8.95;;;4.20;;
75937;SDS011;64615;32.062;34.834;2023-04-24T02:55:28;8.73;;;4.90;;
75937;SDS011;64615;32.062;34.834;2023-04-24T02:57:54;11.65;;;4.95;;
75937;SDS011;64615;32.062;34.834;2023-04-24T03:00:19;8.40;;;4.00;;
75937;SDS011;64615;32.062;34.834;2023-04-24T03:02:45;10.07;;;4.78;;
75937;SDS011;64615;32.062;34.834;2023-04-24T03:05:11;8.80;;;4.82;;
75937;SDS011;64615;32.062;34.834;2023-04-24T03:07:37;8.82;;;5.13;;
75937;SDS011;64615;32.062;34.834;2023-04-24T03:10:03;11.70;;;5.00;;
75937;SDS011;64615;32.062;34.834;2023-04-24T03:12:30;12.25;;;5.32;;
75937;SDS011;64615;32.062;34.834;2023-04-24T03:14:56;9.00;;;4.75;;
75937;SDS011;64615;32.062;34.834;2023-04-24T03:17:22;9.75;;;4.97;;
75937;SDS011;64615;32.062;34.834;2023-04-24T03:19:48;15.27;;;5.18;;
75937;SDS011;64615;32.062;34.834;2023-04-24T03:22:13;9.95;;;5.57;;
75937;SDS011;64615;32.062;34.834;2023-04-24T03:24:39;16.60;;;5.30;;
75937;SDS011;64615;32.062;34.834;2023-04-24T03:27:05;20.17;;;6.00;;
75937;SDS011;64615;32.062;34.834;2023-04-24T03:29:30;14.60;;;5.10;;
75937;SDS011;64615;32.062;34.834;2023-04-24T03:31:56;15.32;;;6.10;;
75937;SDS011;64615;32.062;34.834;2023-04-24T03:34:22;18.35;;;5.53;;
75937;SDS011;64615;32.062;34.834;2023-04-24T03:36:47;18.50;;;5.70;;
75937;SDS011;64615;32.062;34.834;2023-04-24T03:39:13;20.65;;;5.68;;
75937;SDS011;64615;32.062;34.834;2023-04-24T03:41:39;23.30;;;5.75;;
75937;SDS011;64615;32.062;34.834;2023-04-24T03:44:04;30.13;;;5.68;;
75937;SDS011;64615;32.062;34.834;2023-04-24T03:46:30;25.45;;;6.40;;
75937;SDS011;64615;32.062;34.834;2023-04-24T03:48:55;23.88;;;5.85;;
75937;SDS011;64615;32.062;34.834;2023-04-24T03:51:21;34.08;;;5.85;;
75937;SDS011;64615;32.062;34.834;2023-04-24T03:53:48;27.88;;;6.03;;
75937;SDS011;64615;32.062;34.834;2023-04-24T03:56:14;22.75;;;7.32;;
75937;SDS011;64615;32.062;34.834;2023-04-24T03:58:40;29.67;;;6.32;;
75937;SDS011;64615;32.062;34.834;2023-04-24T04:01:05;16.48;;;6.85;;
75937;SDS011;64615;32.062;34.834;2023-04-24T04:03:31;25.90;;;7.47;;
75937;SDS011;64615;32.062;34.834;2023-04-24T04:05:57;21.50;;;7.72;;
75937;SDS011;64615;32.062;34.834;2023-04-24T04:08:23;23.67;;;7.20;;
75937;SDS011;64615;32.062;34.834;2023-04-24T04:10:48;19.83;;;6.93;;
75937;SDS011;64615;32.062;34.834;2023-04-24T04:13:14;20.38;;;6.65;;
75937;SDS011;64615;32.062;34.834;2023-04-24T04:15:40;15.40;;;5.35;;
75937;SDS011;64615;32.062;34.834;2023-04-24T04:18:06;18.88;;;6.07;;
75937;SDS011;64615;32.062;34.834;2023-04-24T04:20:31;25.65;;;5.85;;
75937;SDS011;64615;32.062;34.834;2023-04-24T04:22:57;15.85;;;6.07;;
75937;SDS011;64615;32.062;34.834;2023-04-24T04:25:22;14.63;;;5.80;;
75937;SDS011;64615;32.062;34.834;2023-04-24T04:27:48;18.02;;;6.35;;
75937;SDS011;64615;32.062;34.834;2023-04-24T04:30:14;16.15;;;5.97;;
75937;SDS011;64615;32.062;34.834;2023-04-24T04:32:40;25.60;;;7.25;;
75937;SDS011;64615;32.062;34.834;2023-04-24T04:35:06;31.70;;;7.93;;
75937;SDS011;64615;32.062;34.834;2023-04-24T04:37:32;32.65;;;9.60;;
75937;SDS011;64615;32.062;34.834;2023-04-24T04:40:01;25.17;;;10.18;;
75937;SDS011;64615;32.062;34.834;2023-04-24T04:42:31;30.00;;;9.50;;
75937;SDS011;64615;32.062;34.834;2023-04-24T04:45:01;31.67;;;11.68;;
75937;SDS011;64615;32.062;34.834;2023-04-24T04:47:27;41.17;;;12.50;;
75937;SDS011;64615;32.062;34.834;2023-04-24T04:49:53;41.17;;;12.95;;
75937;SDS011;64615;32.062;34.834;2023-04-24T04:52:19;37.20;;;12.80;;
75937;SDS011;64615;32.062;34.834;2023-04-24T04:54:49;36.20;;;13.27;;
75937;SDS011;64615;32.062;34.834;2023-04-24T04:57:15;39.38;;;12.75;;
75937;SDS011;64615;32.062;34.834;2023-04-24T04:59:41;32.47;;;12.65;;
75937;SDS011;64615;32.062;34.834;2023-04-24T05:02:07;33.97;;;11.68;;
75937;SDS011;64615;32.062;34.834;2023-04-24T05:04:32;50.58;;;13.65;;
75937;SDS011;64615;32.062;34.834;2023-04-24T05:06:58;43.85;;;13.05;;
75937;SDS011;64615;32.062;34.834;2023-04-24T05:09:24;38.22;;;12.27;;
75937;SDS011;64615;32.062;34.834;2023-04-24T05:14:18;35.38;;;11.88;;
75937;SDS011;64615;32.062;34.834;2023-04-24T05:16:44;42.22;;;11.50;;
75937;SDS011;64615;32.062;34.834;2023-04-24T05:19:10;33.97;;;11.85;;
75937;SDS011;64615;32.062;34.834;2023-04-24T05:21:37;41.75;;;11.40;;
75937;SDS011;64615;32.062;34.834;2023-04-24T05:24:04;32.03;;;10.75;;
75937;SDS011;64615;32.062;34.834;2023-04-24T05:26:30;37.70;;;10.57;;
75937;SDS011;64615;32.062;34.834;2023-04-24T05:28:56;42.65;;;11.70;;
75937;SDS011;64615;32.062;34.834;2023-04-24T05:31:21;33.38;;;10.52;;
75937;SDS011;64615;32.062;34.834;2023-04-24T05:33:47;28.92;;;9.77;;
75937;SDS011;64615;32.062;34.834;2023-04-24T05:36:13;33.17;;;10.88;;
75937;SDS011;64615;32.062;34.834;2023-04-24T05:38:38;27.38;;;9.95;;
75937;SDS011;64615;32.062;34.834;2023-04-24T05:41:04;24.33;;;9.27;;
75937;SDS011;64615;32.062;34.834;2023-04-24T05:43:30;29.60;;;10.13;;
75937;SDS011;64615;32.062;34.834;2023-04-24T05:45:55;30.50;;;9.07;;
75937;SDS011;64615;32.062;34.834;2023-04-24T05:48:21;28.55;;;9.82;;
75937;SDS011;64615;32.062;34.834;2023-04-24T05:50:50;29.20;;;9.45;;
75937;SDS011;64615;32.062;34.834;2023-04-24T05:53:17;27.73;;;8.75;;
75937;SDS011;64615;32.062;34.834;2023-04-24T05:55:43;30.10;;;9.52;;
75937;SDS011;64615;32.062;34.834;2023-04-24T05:58:09;25.88;;;9.95;;
75937;SDS011;64615;32.062;34.834;2023-04-24T06:00:35;20.95;;;8.70;;
75937;SDS011;64615;32.062;34.834;2023-04-24T06:03:01;23.00;;;8.60;;
75937;SDS011;64615;32.062;34.834;2023-04-24T06:05:28;24.15;;;8.27;;
75937;SDS011;64615;32.062;34.834;2023-04-24T06:07:55;22.45;;;8.65;;
75937;SDS011;64615;32.062;34.834;2023-04-24T06:10:21;24.50;;;7.93;;
75937;SDS011;64615;32.062;34.834;2023-04-24T06:12:47;19.15;;;6.80;;
75937;SDS011;64615;32.062;34.834;2023-04-24T06:15:12;17.75;;;6.57;;
75937;SDS011;64615;32.062;34.834;2023-04-24T06:17:38;19.50;;;7.28;;
75937;SDS011;64615;32.062;34.834;2023-04-24T06:20:04;19.80;;;7.93;;
75937;SDS011;64615;32.062;34.834;2023-04-24T06:22:31;20.50;;;7.70;;
75937;SDS011;64615;32.062;34.834;2023-04-24T06:24:57;18.48;;;7.35;;
75937;SDS011;64615;32.062;34.834;2023-04-24T06:27:23;21.02;;;7.13;;
75937;SDS011;64615;32.062;34.834;2023-04-24T06:29:48;24.33;;;8.00;;
75937;SDS011;64615;32.062;34.834;2023-04-24T06:32:22;17.02;;;7.25;;
75937;SDS011;64615;32.062;34.834;2023-04-24T06:34:49;17.33;;;6.85;;
75937;SDS011;64615;32.062;34.834;2023-04-24T06:37:16;18.60;;;7.22;;
75937;SDS011;64615;32.062;34.834;2023-04-24T06:39:41;18.20;;;6.72;;
75937;SDS011;64615;32.062;34.834;2023-04-24T06:42:07;19.65;;;6.88;;
75937;SDS011;64615;32.062;34.834;2023-04-24T06:44:35;16.60;;;6.80;;
75937;SDS011;64615;32.062;34.834;2023-04-24T06:47:06;15.30;;;6.70;;
75937;SDS011;64615;32.062;34.834;2023-04-24T06:49:33;14.88;;;6.18;;
75937;SDS011;64615;32.062;34.834;2023-04-24T06:51:59;19.58;;;6.45;;
75937;SDS011;64615;32.062;34.834;2023-04-24T06:54:25;16.10;;;5.50;;
75937;SDS011;64615;32.062;34.834;2023-04-24T06:56:51;15.57;;;5.78;;
75937;SDS011;64615;32.062;34.834;2023-04-24T06:59:17;13.85;;;5.30;;
75937;SDS011;64615;32.062;34.834;2023-04-24T07:01:42;18.55;;;5.97;;
75937;SDS011;64615;32.062;34.834;2023-04-24T07:04:08;14.77;;;6.28;;
75937;SDS011;64615;32.062;34.834;2023-04-24T07:06:34;11.98;;;5.25;;
75937;SDS011;64615;32.062;34.834;2023-04-24T07:09:01;12.88;;;5.30;;
75937;SDS011;64615;32.062;34.834;2023-04-24T07:11:27;12.13;;;5.45;;
75937;SDS011;64615;32.062;34.834;2023-04-24T07:13:54;15.15;;;4.57;;
75937;SDS011;64615;32.062;34.834;2023-04-24T07:16:20;11.95;;;4.35;;
75937;SDS011;64615;32.062;34.834;2023-04-24T07:18:46;16.48;;;4.80;;
75937;SDS011;64615;32.062;34.834;2023-04-24T07:21:12;13.80;;;4.70;;
75937;SDS011;64615;32.062;34.834;2023-04-24T07:23:37;12.25;;;4.10;;
75937;SDS011;64615;32.062;34.834;2023-04-24T07:26:03;10.40;;;4.47;;
75937;SDS011;64615;32.062;34.834;2023-04-24T07:28:29;11.82;;;4.22;;
75937;SDS011;64615;32.062;34.834;2023-04-24T07:30:58;12.38;;;3.85;;
75937;SDS011;64615;32.062;34.834;2023-04-24T07:33:25;9.95;;;3.75;;
75937;SDS011;64615;32.062;34.834;2023-04-24T07:35:53;9.00;;;3.72;;
75937;SDS011;64615;32.062;34.834;2023-04-24T07:38:19;8.40;;;4.13;;
75937;SDS011;64615;32.062;34.834;2023-04-24T07:43:14;8.32;;;3.83;;
75937;SDS011;64615;32.062;34.834;2023-04-24T07:45:40;7.13;;;3.63;;
75937;SDS011;64615;32.062;34.834;2023-04-24T07:48:06;7.95;;;3.65;;
75937;SDS011;64615;32.062;34.834;2023-04-24T07:50:34;8.95;;;3.55;;
75937;SDS011;64615;32.062;34.834;2023-04-24T07:53:01;12.52;;;3.92;;
75937;SDS011;64615;32.062;34.834;2023-04-24T07:55:27;8.25;;;3.78;;
75937;SDS011;64615;32.062;34.834;2023-04-24T07:57:52;12.05;;;4.10;;
75937;SDS011;64615;32.062;34.834;2023-04-24T08:00:18;8.20;;;3.90;;
75937;SDS011;64615;32.062;34.834;2023-04-24T08:02:45;11.25;;;3.53;;
75937;SDS011;64615;32.062;34.834;2023-04-24T08:05:10;9.50;;;3.60;;
75937;SDS011;64615;32.062;34.834;2023-04-24T08:07:36;6.68;;;3.50;;
75937;SDS011;64615;32.062;34.834;2023-04-24T08:10:03;8.35;;;3.97;;
75937;SDS011;64615;32.062;34.834;2023-04-24T08:12:29;7.25;;;3.35;;
75937;SDS011;64615;32.062;34.834;2023-04-24T08:14:55;9.25;;;3.78;;
75937;SDS011;64615;32.062;34.834;2023-04-24T08:17:20;7.55;;;3.72;;
75937;SDS011;64615;32.062;34.834;2023-04-24T08:19:46;7.32;;;3.55;;
75937;SDS011;64615;32.062;34.834;2023-04-24T08:22:16;6.65;;;3.67;;
75937;SDS011;64615;32.062;34.834;2023-04-24T08:24:42;9.13;;;3.90;;
75937;SDS011;64615;32.062;34.834;2023-04-24T08:27:09;9.50;;;3.65;;
75937;SDS011;64615;32.062;34.834;2023-04-24T08:29:35;8.02;;;3.40;;
75937;SDS011;64615;32.062;34.834;2023-04-24T08:32:01;10.60;;;3.47;;
75937;SDS011;64615;32.062;34.834;2023-04-24T08:34:27;12.00;;;3.65;;
75937;SDS011;64615;32.062;34.834;2023-04-24T08:36:53;8.88;;;3.45;;
75937;SDS011;64615;32.062;34.834;2023-04-24T08:39:19;12.13;;;4.45;;
75937;SDS011;64615;32.062;34.834;2023-04-24T08:41:45;7.32;;;3.92;;
75937;SDS011;64615;32.062;34.834;2023-04-24T08:46:41;9.27;;;3.10;;
75937;SDS011;64615;32.062;34.834;2023-04-24T08:49:10;6.18;;;3.20;;
75937;SDS011;64615;32.062;34.834;2023-04-24T08:51:38;8.18;;;3.50;;
75937;SDS011;64615;32.062;34.834;2023-04-24T08:54:04;7.65;;;3.65;;
75937;SDS011;64615;32.062;34.834;2023-04-24T08:56:30;6.28;;;3.20;;
75937;SDS011;64615;32.062;34.834;2023-04-24T08:58:59;11.68;;;3.80;;
75937;SDS011;64615;32.062;34.834;2023-04-24T09:01:24;7.95;;;3.70;;
75937;SDS011;64615;32.062;34.834;2023-04-24T09:03:51;6.80;;;3.38;;
75937;SDS011;64615;32.062;34.834;2023-04-24T09:06:20;8.27;;;3.40;;
75937;SDS011;64615;32.062;34.834;2023-04-24T09:08:47;7.25;;;3.38;;
75937;SDS011;64615;32.062;34.834;2023-04-24T09:11:16;5.88;;;3.05;;
75937;SDS011;64615;32.062;34.834;2023-04-24T09:13:42;7.38;;;3.70;;
75937;SDS011;64615;32.062;34.834;2023-04-24T09:16:08;9.15;;;3.72;;
75937;SDS011;64615;32.062;34.834;2023-04-24T09:18:34;9.38;;;2.88;;
75937;SDS011;64615;32.062;34.834;2023-04-24T09:21:01;8.00;;;3.20;;
75937;SDS011;64615;32.062;34.834;2023-04-24T09:25:55;7.75;;;2.90;;
75937;SDS011;64615;32.062;34.834;2023-04-24T09:28:31;7.43;;;2.95;;
75937;SDS011;64615;32.062;34.834;2023-04-24T09:31:09;7.13;;;3.13;;
75937;SDS011;64615;32.062;34.834;2023-04-24T09:33:40;7.68;;;2.80;;
75937;SDS011;64615;32.062;34.834;2023-04-24T09:36:18;5.85;;;2.45;;
75937;SDS011;64615;32.062;34.834;2023-04-24T09:38:43;6.18;;;2.72;;
75937;SDS011;64615;32.062;34.834;2023-04-24T09:41:12;7.47;;;2.78;;
75937;SDS011;64615;32.062;34.834;2023-04-24T09:43:38;7.28;;;2.70;;
75937;SDS011;64615;32.062;34.834;2023-04-24T09:46:07;7.35;;;3.03;;
75937;SDS011;64615;32.062;34.834;2023-04-24T09:48:37;9.18;;;2.50;;
75937;SDS011;64615;32.062;34.834;2023-04-24T09:51:03;7.97;;;2.70;;
75937;SDS011;64615;32.062;34.834;2023-04-24T09:53:32;9.27;;;2.75;;
75937;SDS011;64615;32.062;34.834;2023-04-24T09:56:07;8.38;;;2.80;;
75937;SDS011;64615;32.062;34.834;2023-04-24T09:58:35;5.90;;;2.20;;
75937;SDS011;64615;32.062;34.834;2023-04-24T10:01:01;9.73;;;2.90;;
75937;SDS011;64615;32.062;34.834;2023-04-24T10:03:29;7.05;;;2.38;;
75937;SDS011;64615;32.062;34.834;2023-04-24T10:05:58;4.75;;;2.30;;
75937;SDS011;64615;32.062;34.834;2023-04-24T10:08:26;5.10;;;2.20;;
75937;SDS011;64615;32.062;34.834;2023-04-24T10:10:59;4.90;;;1.83;;
75937;SDS011;64615;32.062;34.834;2023-04-24T10:13:25;4.28;;;2.40;;
75937;SDS011;64615;32.062;34.834;2023-04-24T10:15:51;5.32;;;2.28;;
75937;SDS011;64615;32.062;34.834;2023-04-24T10:18:17;3.85;;;1.70;;
75937;SDS011;64615;32.062;34.834;2023-04-24T10:20:44;5.55;;;1.90;;
75937;SDS011;64615;32.062;34.834;2023-04-24T10:23:10;3.90;;;1.80;;
75937;SDS011;64615;32.062;34.834;2023-04-24T10:25:37;7.18;;;2.05;;
75937;SDS011;64615;32.062;34.834;2023-04-24T10:28:03;4.20;;;1.70;;
75937;SDS011;64615;32.062;34.834;2023-04-24T10:30:30;3.30;;;1.67;;
75937;SDS011;64615;32.062;34.834;2023-04-24T10:33:04;2.85;;;1.50;;
75937;SDS011;64615;32.062;34.834;2023-04-24T10:35:32;3.00;;;1.58;;
75937;SDS011;64615;32.062;34.834;2023-04-24T10:38:04;3.08;;;1.52;;
75937;SDS011;64615;32.062;34.834;2023-04-24T10:40:34;2.70;;;1.65;;
75937;SDS011;64615;32.062;34.834;2023-04-24T10:43:04;4.05;;;1.67;;
75937;SDS011;64615;32.062;34.834;2023-04-24T10:45:33;3.10;;;1.58;;
75937;SDS011;64615;32.062;34.834;2023-04-24T10:48:06;3.50;;;1.65;;
75937;SDS011;64615;32.062;34.834;2023-04-24T10:50:43;2.38;;;1.35;;
75937;SDS011;64615;32.062;34.834;2023-04-24T10:53:14;2.67;;;1.50;;
75937;SDS011;64615;32.062;34.834;2023-04-24T10:55:46;2.85;;;1.40;;
75937;SDS011;64615;32.062;34.834;2023-04-24T10:58:13;2.97;;;1.50;;
75937;SDS011;64615;32.062;34.834;2023-04-24T11:00:41;3.05;;;1.40;;
75937;SDS011;64615;32.062;34.834;2023-04-24T11:03:25;3.10;;;1.40;;
75937;SDS011;64615;32.062;34.834;2023-04-24T11:06:00;3.10;;;1.40;;
75937;SDS011;64615;32.062;34.834;2023-04-24T11:08:31;4.85;;;1.40;;
75937;SDS011;64615;32.062;34.834;2023-04-24T11:11:12;2.53;;;1.30;;
75937;SDS011;64615;32.062;34.834;2023-04-24T11:19:07;2.03;;;1.20;;
75937;SDS011;64615;32.062;34.834;2023-04-24T11:21:41;2.55;;;1.20;;
75937;SDS011;64615;32.062;34.834;2023-04-24T11:24:38;2.60;;;1.00;;
75937;SDS011;64615;32.062;34.834;2023-04-24T11:27:15;2.95;;;1.15;;
75937;SDS011;64615;32.062;34.834;2023-04-24T11:29:48;3.38;;;1.20;;
75937;SDS011;64615;32.062;34.834;2023-04-24T11:32:19;3.83;;;1.10;;
75937;SDS011;64615;32.062;34.834;2023-04-24T11:35:14;3.35;;;1.38;;
75937;SDS011;64615;32.062;34.834;2023-04-24T11:37:46;2.72;;;1.20;;
75937;SDS011;64615;32.062;34.834;2023-04-24T11:40:16;3.20;;;1.10;;
75937;SDS011;64615;32.062;34.834;2023-04-24T11:42:49;3.40;;;1.40;;
75937;SDS011;64615;32.062;34.834;2023-04-24T11:45:26;2.20;;;1.10;;
75937;SDS011;64615;32.062;34.834;2023-04-24T11:47:55;2.20;;;1.20;;
75937;SDS011;64615;32.062;34.834;2023-04-24T11:50:24;3.53;;;1.52;;
75937;SDS011;64615;32.062;34.834;2023-04-24T11:52:52;3.75;;;1.40;;
75937;SDS011;64615;32.062;34.834;2023-04-24T11:57:44;4.10;;;1.50;;
75937;SDS011;64615;32.062;34.834;2023-04-24T12:00:20;6.55;;;1.60;;
75937;SDS011;64615;32.062;34.834;2023-04-24T12:02:51;5.18;;;1.20;;
75937;SDS011;64615;32.062;34.834;2023-04-24T12:05:29;3.05;;;1.23;;
75937;SDS011;64615;32.062;34.834;2023-04-24T12:07:56;2.67;;;1.33;;
75937;SDS011;64615;32.062;34.834;2023-04-24T12:10:22;5.40;;;1.40;;
75937;SDS011;64615;32.062;34.834;2023-04-24T12:12:50;4.38;;;1.92;;
75937;SDS011;64615;32.062;34.834;2023-04-24T12:15:17;20.33;;;2.22;;
75937;SDS011;64615;32.062;34.834;2023-04-24T12:17:45;5.50;;;1.65;;
75937;SDS011;64615;32.062;34.834;2023-04-24T12:20:12;11.95;;;1.90;;
75937;SDS011;64615;32.062;34.834;2023-04-24T12:22:46;8.55;;;1.90;;
75937;SDS011;64615;32.062;34.834;2023-04-24T12:25:13;6.40;;;2.05;;
75937;SDS011;64615;32.062;34.834;2023-04-24T12:27:40;8.93;;;2.00;;
75937;SDS011;64615;32.062;34.834;2023-04-24T12:30:09;7.40;;;2.28;;
75937;SDS011;64615;32.062;34.834;2023-04-24T12:32:40;6.03;;;2.17;;
75937;SDS011;64615;32.062;34.834;2023-04-24T12:35:11;7.03;;;2.03;;
75937;SDS011;64615;32.062;34.834;2023-04-24T12:37:37;8.98;;;2.35;;
75937;SDS011;64615;32.062;34.834;2023-04-24T12:40:08;5.88;;;2.20;;
75937;SDS011;64615;32.062;34.834;2023-04-24T12:42:35;5.70;;;2.10;;
75937;SDS011;64615;32.062;34.834;2023-04-24T12:45:07;5.68;;;2.55;;
75937;SDS011;64615;32.062;34.834;2023-04-24T12:47:33;8.57;;;2.15;;
75937;SDS011;64615;32.062;34.834;2023-04-24T12:50:00;7.57;;;2.30;;
75937;SDS011;64615;32.062;34.834;2023-04-24T12:52:28;4.32;;;2.33;;
75937;SDS011;64615;32.062;34.834;2023-04-24T12:54:55;10.15;;;2.35;;
75937;SDS011;64615;32.062;34.834;2023-04-24T12:57:23;8.10;;;2.40;;
75937;SDS011;64615;32.062;34.834;2023-04-24T12:59:49;9.55;;;2.38;;
75937;SDS011;64615;32.062;34.834;2023-04-24T13:02:16;10.05;;;2.35;;
75937;SDS011;64615;32.062;34.834;2023-04-24T13:04:45;8.02;;;2.15;;
75937;SDS011;64615;32.062;34.834;2023-04-24T13:07:12;11.82;;;2.47;;
75937;SDS011;64615;32.062;34.834;2023-04-24T13:09:39;11.70;;;2.20;;
75937;SDS011;64615;32.062;34.834;2023-04-24T13:12:06;6.40;;;2.38;;
75937;SDS011;64615;32.062;34.834;2023-04-24T13:14:33;4.00;;;2.08;;
75937;SDS011;64615;32.062;34.834;2023-04-24T13:16:59;8.20;;;2.50;;
75937;SDS011;64615;32.062;34.834;2023-04-24T13:19:25;5.22;;;2.10;;
75937;SDS011;64615;32.062;34.834;2023-04-24T13:21:52;6.70;;;2.05;;
75937;SDS011;64615;32.062;34.834;2023-04-24T13:24:18;5.40;;;2.30;;
75937;SDS011;64615;32.062;34.834;2023-04-24T13:26:43;5.63;;;2.10;;
75937;SDS011;64615;32.062;34.834;2023-04-24T13:29:09;5.75;;;1.90;;
75937;SDS011;64615;32.062;34.834;2023-04-24T13:31:35;8.60;;;1.88;;
75937;SDS011;64615;32.062;34.834;2023-04-24T13:34:01;6.65;;;2.50;;
75937;SDS011;64615;32.062;34.834;2023-04-24T13:36:27;8.35;;;2.50;;
75937;SDS011;64615;32.062;34.834;2023-04-24T13:38:53;6.25;;;2.15;;
75937;SDS011;64615;32.062;34.834;2023-04-24T13:41:19;4.30;;;1.90;;
75937;SDS011;64615;32.062;34.834;2023-04-24T13:43:45;4.47;;;2.10;;
75937;SDS011;64615;32.062;34.834;2023-04-24T13:46:10;8.93;;;2.10;;
75937;SDS011;64615;32.062;34.834;2023-04-24T13:48:36;5.97;;;2.17;;
75937;SDS011;64615;32.062;34.834;2023-04-24T13:51:02;7.05;;;1.90;;
75937;SDS011;64615;32.062;34.834;2023-04-24T13:53:27;4.80;;;2.08;;
75937;SDS011;64615;32.062;34.834;2023-04-24T13:55:53;4.40;;;1.90;;
75937;SDS011;64615;32.062;34.834;2023-04-24T13:58:19;6.05;;;2.17;;
75937;SDS011;64615;32.062;34.834;2023-04-24T14:00:45;6.32;;;2.10;;
75937;SDS011;64615;32.062;34.834;2023-04-24T14:03:11;4.90;;;2.20;;
75937;SDS011;64615;32.062;34.834;2023-04-24T14:05:37;6.22;;;1.88;;
75937;SDS011;64615;32.062;34.834;2023-04-24T14:08:02;6.20;;;2.20;;
75937;SDS011;64615;32.062;34.834;2023-04-24T14:10:28;5.75;;;2.00;;
75937;SDS011;64615;32.062;34.834;2023-04-24T14:12:53;8.77;;;2.20;;
75937;SDS011;64615;32.062;34.834;2023-04-24T14:15:19;7.47;;;2.05;;
75937;SDS011;64615;32.062;34.834;2023-04-24T14:17:45;4.28;;;1.80;;
75937;SDS011;64615;32.062;34.834;2023-04-24T14:20:11;4.63;;;2.10;;
75937;SDS011;64615;32.062;34.834;2023-04-24T14:22:37;4.47;;;1.83;;
75937;SDS011;64615;32.062;34.834;2023-04-24T14:25:04;3.50;;;1.70;;
75937;SDS011;64615;32.062;34.834;2023-04-24T14:27:30;4.55;;;1.95;;
75937;SDS011;64615;32.062;34.834;2023-04-24T14:29:57;5.10;;;1.80;;
75937;SDS011;64615;32.062;34.834;2023-04-24T14:32:22;3.72;;;1.80;;
75937;SDS011;64615;32.062;34.834;2023-04-24T14:34:48;4.30;;;2.00;;
75937;SDS011;64615;32.062;34.834;2023-04-24T14:37:14;4.10;;;1.92;;
75937;SDS011;64615;32.062;34.834;2023-04-24T14:39:40;4.72;;;1.98;;
75937;SDS011;64615;32.062;34.834;2023-04-24T14:42:06;5.28;;;1.70;;
75937;SDS011;64615;32.062;34.834;2023-04-24T14:44:31;3.60;;;2.00;;